Christian Batshuayi

Olheiro - Club Brugge
5 Dez 2027
Domingo
Processo

Personalidade

Adaptabilidade (10) Ambição (5) Controvérsia (3) Lealdade (2) Pressão (1) Profissionalismo (8) Espírito Esportivo (8) Temperamento (8)

Perfil

Estilo de Treinamento Democrático
Licença Nacional B
Determinação 14
Gestão de Pessoas 12
Motivação 12
Disciplina 8
Satisfação no Trabalho
100%
Fadiga
0%
Função Olheiro
Salário 103.4K p/s
Contrato 14.03.2028

Desempenho

Comportamento Bom
Eficácia do Treinamento
52%
Desenvolvimento do Jogador
65%
Prevenção de Lesões
40%
Implementação Tática
65%

Eventos Recentes

Participou de uma reunião de recrutamento agora
Participou de uma reunião de recrutamento agora
Recomendou um alvo de transferência agora
Recomendou um alvo de transferência agora
Avaliou um jogador agora
Avaliou um jogador 7d atrás
Avaliou um jogador 7d atrás
Avaliou um jogador 7d atrás

Monitorando agora

95
Jogador Clube Status Habilidade Confiança Observado Última observação Último voto
Vitor Roque Palmeiras Ativo 145 / 153 40% 1 03.12.2027 -
Chemsdine Talbi Sunderland Ativo 153 / 154 40% 1 03.12.2027 -
Enzo Millot Al-Ahli Ativo 158 / 156 40% 1 03.12.2027 -
Amadou Onana Aston Villa Ativo 158 / 154 40% 2 02.12.2027 -
Mats Wieffer Sheffield United Ativo 155 / 145 40% 1 02.12.2027 -
Renan Lodi Atlético Mineiro Ativo 146 / 137 40% 1 02.12.2027 -
Ismaïla Sarr Crystal Palace Ativo 150 / 156 40% 1 30.11.2027 -
Malick Fofana Sunderland Ativo 155 / 155 40% 1 30.11.2027 -
Savinho Watford Ativo 161 / 159 40% 2 27.11.2027 -
Carlos Forbs Charleroi Ativo 134 / 144 40% 1 27.11.2027 -
Yang Min-Hyeok Stevenage Ativo 128 / 132 40% 1 27.11.2027 -
Liam Delap Nottingham Forest Ativo 148 / 149 40% 2 26.11.2027 -
Ramón Sosa Palmeiras Ativo 125 / 130 40% 1 26.11.2027 -
Erick Sánchez River Plate Ativo 157 / 141 40% 1 26.11.2027 -
Bradley Locko Stade Brestois Ativo 140 / 146 40% 2 24.11.2027 -
Khalis Merah Olympique Lyonnais Ativo 131 / 138 40% 1 24.11.2027 -
Romain Faivre Bournemouth Ativo 144 / 139 40% 1 24.11.2027 -
Maurício Palmeiras Ativo 127 / 135 40% 1 22.11.2027 -
Vitinho Botafogo Ativo 138 / 127 40% 1 22.11.2027 -
Martinelli Fluminense Ativo 130 / 136 40% 1 22.11.2027 -
Mohamed-Ali Cho Paris Saint-Germain Ativo 139 / 141 40% 1 21.11.2027 -
Ethan Mbappé Stade Rennais Ativo 131 / 146 40% 1 21.11.2027 -
Luca De La Torre Charlotte Football Club Ativo 139 / 137 40% 1 18.11.2027 -
David Martínez Orlando City Ativo 119 / 130 40% 1 18.11.2027 -
Mohammed El Hankouri Standard Liege Ativo 136 / 133 69% 1 23.08.2027 Aprovar
Konstantin Tyukavin KV Mechelen Ativo 137 / 139 40% 1 31.05.2027 Mais informações
Youri Baas Bournemouth Ativo 142 / 145 40% 4 30.05.2027 -
André Wolverhampton Ativo 148 / 150 40% 1 30.05.2027 -
Jacob Greaves Ipswich Town Ativo 144 / 134 40% 1 30.05.2027 -
Habib Diarra Sunderland Ativo 135 / 147 40% 1 29.05.2027 -
Nicolas Madsen Queens Park Rangers Ativo 133 / 127 40% 1 29.05.2027 -
Tim Iroegbunam Hull City Ativo 143 / 139 40% 3 27.05.2027 -
Kristoffer Lund Birmingham Ativo 134 / 133 40% 1 27.05.2027 -
Will Dennis Milton Keynes Dons Ativo 108 / 113 40% 2 25.05.2027 -
Elia Caprile Cagliari Ativo 151 / 145 40% 2 25.05.2027 -
Maduka Okoye Udinese Ativo 135 / 145 40% 1 25.05.2027 -
Anthony Patterson Wrexham Ativo 135 / 127 40% 2 24.05.2027 -
Issa Kaboré Wrexham Ativo 137 / 136 40% 5 23.05.2027 -
Lorenzo Amatucci Deportivo La Coruña Ativo 131 / 134 40% 1 23.05.2027 -
Sergio Barlocco Trento Ativo 108 / 110 40% 1 23.05.2027 -
Brooke Norton-Cuffy Hull City Ativo 137 / 135 40% 3 21.05.2027 -
Roméo Lavia Chelsea Ativo 151 / 149 40% 3 21.05.2027 -
Joseph Sulemana WAFA Ativo 91 / 104 40% 1 17.05.2027 -
Youri Onana Standard Liege Ativo 133 / 127 40% 1 17.05.2027 -
Michael Cooper Sheffield United Ativo 139 / 136 40% 3 16.05.2027 -
Quinten Timber Crystal Palace Ativo 157 / 146 40% 2 15.05.2027 -
Juanlu Bournemouth Ativo 151 / 150 40% 2 15.05.2027 -
Bosun Lawal Stoke City Ativo 130 / 125 40% 1 15.05.2027 -
Louis Leroux FC Nantes Ativo 127 / 127 40% 2 11.05.2027 -
Éderson Atalanta Ativo 160 / 159 40% 1 11.05.2027 -
Ethan Ampadu Leeds United Ativo 150 / 144 40% 1 11.05.2027 -
Francesco D'Alterio Ternana Ativo 105 / 111 40% 1 09.05.2027 -
Mandela Keita Parma Ativo 134 / 130 40% 2 06.05.2027 -
Ethan Galbraith Swansea City Ativo 130 / 130 40% 2 06.05.2027 -
James Trafford Leeds United Ativo 150 / 143 40% 2 02.05.2027 -
Matthias Da Silva Olympique Lyonnais Ativo 85 / 100 40% 1 02.05.2027 -
Senne Lammens AS Roma Ativo 156 / 152 40% 1 02.05.2027 -
Florentino Luís Ipswich Town Ativo 143 / 140 40% 3 01.05.2027 -
Mads Hermansen West Ham United Ativo 146 / 137 40% 2 29.04.2027 -
Adam Wharton Crystal Palace Ativo 145 / 157 40% 2 28.04.2027 -
Thulani Furman SuperSport United Ativo 118 / 104 40% 2 28.04.2027 -
Zach Hemming Chesterfield Ativo 112 / 103 40% 1 28.04.2027 -
Oumar Solet Udinese Ativo 143 / 151 40% 1 28.04.2027 -
Jacques Ekomié Wrexham Ativo 136 / 128 40% 2 27.04.2027 -
Nico O'Reilly Manchester City Ativo 158 / 160 40% 1 27.04.2027 -
Milan van Ewijk Coventry City Ativo 126 / 130 40% 2 26.04.2027 -
Alessandro Buongiorno Udinese Ativo 156 / 160 40% 1 26.04.2027 -
Welington Southampton Ativo 130 / 127 40% 1 25.04.2027 -
Josh Keeley Luton Town Ativo 131 / 124 40% 2 21.04.2027 -
Andreas Jungdal Westerlo Ativo 122 / 129 40% 1 21.04.2027 -
Ersin Destanoğlu Adana Demirspor Ativo 123 / 114 40% 1 19.04.2027 -
Melker Ellborg Sunderland Ativo 126 / 120 40% 2 16.04.2027 -
Joshua Oluwayemi Newport County Ativo 102 / 93 40% 2 16.04.2027 -
Óscar Mingueza Crystal Palace Ativo 157 / 155 40% 3 15.04.2027 -
Ian Maatsen Aston Villa Ativo 157 / 153 40% 1 15.04.2027 -
Bobby Thomas Coventry City Ativo 137 / 135 40% 1 15.04.2027 -
James Garner Everton Ativo 153 / 147 40% 1 14.04.2027 -
Harrison Burrows Sheffield United Ativo 122 / 131 40% 1 14.04.2027 -
Khéphren Thuram Juventus Ativo 162 / 160 40% 1 14.04.2027 -
Nobel Mendy Hull City Ativo 138 / 133 40% 1 13.04.2027 -
Archie Brown Fenerbahce Ativo 147 / 141 40% 1 12.04.2027 -
Andrea Cambiaso Juventus Ativo 144 / 155 40% 1 12.04.2027 -
Nathan Bishop AFC Wimbledon Ativo 106 / 102 40% 1 11.04.2027 -
Jan Paul van Hecke Tottenham Ativo 155 / 151 40% 1 10.04.2027 -
Hlompho Manyama Sivasspor Ativo 111 / 116 40% 1 08.04.2027 -
Marcelin Mbahbi Cotonsport Garoua Ativo 105 / 105 40% 1 08.04.2027 -
Radek Vítek Middlesbrough Ativo 141 / 144 40% 1 08.04.2027 -
Harry Clarke Preston Ativo 133 / 123 40% 2 06.04.2027 -
Noah Sadiki Sunderland Ativo 148 / 144 40% 1 04.04.2027 -
Alex Scott Bournemouth Ativo 148 / 146 40% 3 03.04.2027 -
Curtis Jones Inter Ativo 160 / 160 40% 1 27.03.2027 -
Ben Nelson Leicester City Ativo 124 / 127 40% 1 18.03.2027 -
Axel Doku KV Oostende Ativo 119 / 136 65% 1 11.01.2027 Aprovar
Saša Lukić Ipswich Town Ativo 132 / 144 40% 1 01.08.2026 -
Kaoru Mitoma Brighton Ativo 148 / 151 40% 1 01.08.2026 -